sensor_id;sensor_type;location;lat;lon;timestamp;temperature;humidity
56725;DHT22;42608;52.776;6.968;2022-09-09T00:02:22;15.20;99.90
56725;DHT22;42608;52.776;6.968;2022-09-09T00:07:25;15.20;99.90
56725;DHT22;42608;52.776;6.968;2022-09-09T00:12:22;15.20;99.90
56725;DHT22;42608;52.776;6.968;2022-09-09T00:14:54;15.20;99.90
56725;DHT22;42608;52.776;6.968;2022-09-09T00:17:38;15.20;99.90
56725;DHT22;42608;52.776;6.968;2022-09-09T00:20:16;15.20;99.90
56725;DHT22;42608;52.776;6.968;2022-09-09T00:22:55;15.20;99.90
56725;DHT22;42608;52.776;6.968;2022-09-09T00:25:37;15.10;99.90
56725;DHT22;42608;52.776;6.968;2022-09-09T00:28:10;15.20;99.90
56725;DHT22;42608;52.776;6.968;2022-09-09T00:30:39;15.20;99.90
56725;DHT22;42608;52.776;6.968;2022-09-09T00:33:10;15.10;99.90
56725;DHT22;42608;52.776;6.968;2022-09-09T00:35:41;15.20;99.90
56725;DHT22;42608;52.776;6.968;2022-09-09T00:38:16;15.10;99.90
56725;DHT22;42608;52.776;6.968;2022-09-09T00:43:24;15.10;99.90
56725;DHT22;42608;52.776;6.968;2022-09-09T00:45:54;15.10;99.90
56725;DHT22;42608;52.776;6.968;2022-09-09T00:48:23;15.00;99.90
56725;DHT22;42608;52.776;6.968;2022-09-09T00:50:57;15.00;99.90
56725;DHT22;42608;52.776;6.968;2022-09-09T00:58:35;15.00;99.90
56725;DHT22;42608;52.776;6.968;2022-09-09T01:01:04;15.00;99.90
56725;DHT22;42608;52.776;6.968;2022-09-09T01:03:35;15.00;99.90
56725;DHT22;42608;52.776;6.968;2022-09-09T01:06:02;15.00;99.90
56725;DHT22;42608;52.776;6.968;2022-09-09T01:10:56;15.00;99.90
56725;DHT22;42608;52.776;6.968;2022-09-09T01:13:24;15.00;99.90
56725;DHT22;42608;52.776;6.968;2022-09-09T01:15:51;15.00;99.90
56725;DHT22;42608;52.776;6.968;2022-09-09T01:18:21;15.00;99.90
56725;DHT22;42608;52.776;6.968;2022-09-09T01:20:59;15.00;99.90
56725;DHT22;42608;52.776;6.968;2022-09-09T01:23:42;15.00;99.90
56725;DHT22;42608;52.776;6.968;2022-09-09T01:26:13;15.00;99.90
56725;DHT22;42608;52.776;6.968;2022-09-09T01:28:42;15.00;99.90
56725;DHT22;42608;52.776;6.968;2022-09-09T01:31:08;15.00;99.90
56725;DHT22;42608;52.776;6.968;2022-09-09T01:33:36;15.00;99.90
56725;DHT22;42608;52.776;6.968;2022-09-09T01:36:09;14.90;99.90
56725;DHT22;42608;52.776;6.968;2022-09-09T01:38:37;14.90;99.90
56725;DHT22;42608;52.776;6.968;2022-09-09T01:41:03;14.90;99.90
56725;DHT22;42608;52.776;6.968;2022-09-09T01:43:29;14.90;99.90
56725;DHT22;42608;52.776;6.968;2022-09-09T01:45:55;15.00;99.90
56725;DHT22;42608;52.776;6.968;2022-09-09T01:48:22;14.90;99.90
56725;DHT22;42608;52.776;6.968;2022-09-09T01:50:48;14.90;99.90
56725;DHT22;42608;52.776;6.968;2022-09-09T01:53:14;15.00;99.90
56725;DHT22;42608;52.776;6.968;2022-09-09T01:56:02;15.00;99.90
56725;DHT22;42608;52.776;6.968;2022-09-09T01:58:34;15.00;99.90
56725;DHT22;42608;52.776;6.968;2022-09-09T02:03:47;15.00;99.90
56725;DHT22;42608;52.776;6.968;2022-09-09T02:06:36;14.90;99.90
56725;DHT22;42608;52.776;6.968;2022-09-09T02:09:04;15.00;99.90
56725;DHT22;42608;52.776;6.968;2022-09-09T02:11:30;15.00;99.90
56725;DHT22;42608;52.776;6.968;2022-09-09T02:14:00;15.00;99.90
56725;DHT22;42608;52.776;6.968;2022-09-09T02:16:49;15.00;99.90
56725;DHT22;42608;52.776;6.968;2022-09-09T02:19:19;15.00;99.90
56725;DHT22;42608;52.776;6.968;2022-09-09T02:21:51;15.00;99.90
56725;DHT22;42608;52.776;6.968;2022-09-09T02:24:18;15.00;99.90
56725;DHT22;42608;52.776;6.968;2022-09-09T02:26:48;15.00;99.90
56725;DHT22;42608;52.776;6.968;2022-09-09T02:29:16;15.00;99.90
56725;DHT22;42608;52.776;6.968;2022-09-09T02:31:43;15.00;99.90
56725;DHT22;42608;52.776;6.968;2022-09-09T02:34:10;15.00;99.90
56725;DHT22;42608;52.776;6.968;2022-09-09T02:36:36;15.00;99.90
56725;DHT22;42608;52.776;6.968;2022-09-09T02:39:05;15.00;99.90
56725;DHT22;42608;52.776;6.968;2022-09-09T02:41:33;15.00;99.90
56725;DHT22;42608;52.776;6.968;2022-09-09T02:43:59;14.90;99.90
56725;DHT22;42608;52.776;6.968;2022-09-09T02:49:06;14.90;99.90
56725;DHT22;42608;52.776;6.968;2022-09-09T02:51:40;14.90;99.90
56725;DHT22;42608;52.776;6.968;2022-09-09T02:54:10;14.90;99.90
56725;DHT22;42608;52.776;6.968;2022-09-09T02:56:37;14.90;99.90
56725;DHT22;42608;52.776;6.968;2022-09-09T02:59:04;14.90;99.90
56725;DHT22;42608;52.776;6.968;2022-09-09T03:01:30;14.90;99.90
56725;DHT22;42608;52.776;6.968;2022-09-09T03:03:57;14.90;99.90
56725;DHT22;42608;52.776;6.968;2022-09-09T03:06:22;14.90;99.90
56725;DHT22;42608;52.776;6.968;2022-09-09T03:08:48;14.90;99.90
56725;DHT22;42608;52.776;6.968;2022-09-09T03:11:15;14.90;99.90
56725;DHT22;42608;52.776;6.968;2022-09-09T03:13:41;14.90;99.90
56725;DHT22;42608;52.776;6.968;2022-09-09T03:16:06;14.90;99.90
56725;DHT22;42608;52.776;6.968;2022-09-09T03:18:32;14.90;99.90
56725;DHT22;42608;52.776;6.968;2022-09-09T03:21:03;14.90;99.90
56725;DHT22;42608;52.776;6.968;2022-09-09T03:23:29;14.90;99.90
56725;DHT22;42608;52.776;6.968;2022-09-09T03:25:54;14.90;99.90
56725;DHT22;42608;52.776;6.968;2022-09-09T03:28:22;14.90;99.90
56725;DHT22;42608;52.776;6.968;2022-09-09T03:30:48;14.90;99.90
56725;DHT22;42608;52.776;6.968;2022-09-09T03:33:14;15.00;99.90
56725;DHT22;42608;52.776;6.968;2022-09-09T03:35:45;15.00;99.90
56725;DHT22;42608;52.776;6.968;2022-09-09T03:38:12;15.00;99.90
56725;DHT22;42608;52.776;6.968;2022-09-09T03:40:38;15.00;99.90
56725;DHT22;42608;52.776;6.968;2022-09-09T03:43:04;14.90;99.90
56725;DHT22;42608;52.776;6.968;2022-09-09T03:45:30;14.90;99.90
56725;DHT22;42608;52.776;6.968;2022-09-09T03:47:55;14.90;99.90
56725;DHT22;42608;52.776;6.968;2022-09-09T03:50:22;14.90;99.90
56725;DHT22;42608;52.776;6.968;2022-09-09T03:52:49;14.90;99.90
56725;DHT22;42608;52.776;6.968;2022-09-09T03:55:14;14.90;99.90
56725;DHT22;42608;52.776;6.968;2022-09-09T03:57:43;14.90;99.90
56725;DHT22;42608;52.776;6.968;2022-09-09T04:00:09;15.00;99.90
56725;DHT22;42608;52.776;6.968;2022-09-09T04:02:35;15.00;99.90
56725;DHT22;42608;52.776;6.968;2022-09-09T04:05:00;15.00;99.90
56725;DHT22;42608;52.776;6.968;2022-09-09T04:07:26;14.90;99.90
56725;DHT22;42608;52.776;6.968;2022-09-09T04:09:53;15.00;99.90
56725;DHT22;42608;52.776;6.968;2022-09-09T04:12:19;15.00;99.90
56725;DHT22;42608;52.776;6.968;2022-09-09T04:14:46;15.00;99.90
56725;DHT22;42608;52.776;6.968;2022-09-09T04:17:12;14.90;99.90
56725;DHT22;42608;52.776;6.968;2022-09-09T04:19:37;15.00;99.90
56725;DHT22;42608;52.776;6.968;2022-09-09T04:22:03;15.00;99.90
56725;DHT22;42608;52.776;6.968;2022-09-09T04:24:28;15.00;99.90
56725;DHT22;42608;52.776;6.968;2022-09-09T04:26:54;15.00;99.90
56725;DHT22;42608;52.776;6.968;2022-09-09T04:29:19;15.00;99.90
56725;DHT22;42608;52.776;6.968;2022-09-09T04:31:45;14.90;99.90
56725;DHT22;42608;52.776;6.968;2022-09-09T04:34:11;15.00;99.90
56725;DHT22;42608;52.776;6.968;2022-09-09T04:36:36;15.00;99.90
56725;DHT22;42608;52.776;6.968;2022-09-09T04:39:02;15.00;99.90
56725;DHT22;42608;52.776;6.968;2022-09-09T04:41:27;15.00;99.90
56725;DHT22;42608;52.776;6.968;2022-09-09T04:43:53;15.00;99.90
56725;DHT22;42608;52.776;6.968;2022-09-09T04:46:20;15.00;99.90
56725;DHT22;42608;52.776;6.968;2022-09-09T04:48:49;15.00;99.90
56725;DHT22;42608;52.776;6.968;2022-09-09T04:51:15;15.00;99.90
56725;DHT22;42608;52.776;6.968;2022-09-09T04:53:40;14.90;99.90
56725;DHT22;42608;52.776;6.968;2022-09-09T04:58:32;15.00;99.90
56725;DHT22;42608;52.776;6.968;2022-09-09T05:01:04;15.00;99.90
56725;DHT22;42608;52.776;6.968;2022-09-09T05:03:30;15.00;99.90
56725;DHT22;42608;52.776;6.968;2022-09-09T05:06:08;15.00;99.90
56725;DHT22;42608;52.776;6.968;2022-09-09T05:08:38;15.00;99.90
56725;DHT22;42608;52.776;6.968;2022-09-09T05:11:12;15.00;99.90
56725;DHT22;42608;52.776;6.968;2022-09-09T05:13:37;15.00;99.90
56725;DHT22;42608;52.776;6.968;2022-09-09T05:16:03;15.00;99.90
56725;DHT22;42608;52.776;6.968;2022-09-09T05:18:28;15.00;99.90
56725;DHT22;42608;52.776;6.968;2022-09-09T05:20:58;14.90;99.90
56725;DHT22;42608;52.776;6.968;2022-09-09T05:23:23;15.00;99.90
56725;DHT22;42608;52.776;6.968;2022-09-09T05:25:55;15.00;99.90
56725;DHT22;42608;52.776;6.968;2022-09-09T05:28:22;14.90;99.90
56725;DHT22;42608;52.776;6.968;2022-09-09T05:30:57;14.90;99.90
56725;DHT22;42608;52.776;6.968;2022-09-09T05:33:23;14.90;99.90
56725;DHT22;42608;52.776;6.968;2022-09-09T05:35:54;14.90;99.90
56725;DHT22;42608;52.776;6.968;2022-09-09T05:38:21;14.90;99.90
56725;DHT22;42608;52.776;6.968;2022-09-09T05:40:49;14.90;99.90
56725;DHT22;42608;52.776;6.968;2022-09-09T05:43:15;14.90;99.90
56725;DHT22;42608;52.776;6.968;2022-09-09T05:45:40;14.90;99.90
56725;DHT22;42608;52.776;6.968;2022-09-09T05:48:06;14.90;99.90
56725;DHT22;42608;52.776;6.968;2022-09-09T05:50:33;14.90;99.90
56725;DHT22;42608;52.776;6.968;2022-09-09T05:52:58;14.90;99.90
56725;DHT22;42608;52.776;6.968;2022-09-09T05:55:24;14.90;99.90
56725;DHT22;42608;52.776;6.968;2022-09-09T05:57:51;14.90;99.90
56725;DHT22;42608;52.776;6.968;2022-09-09T06:00:17;14.90;99.90
56725;DHT22;42608;52.776;6.968;2022-09-09T06:02:43;14.90;99.90
56725;DHT22;42608;52.776;6.968;2022-09-09T06:05:09;14.90;99.90
56725;DHT22;42608;52.776;6.968;2022-09-09T06:07:36;14.90;99.90
56725;DHT22;42608;52.776;6.968;2022-09-09T06:10:01;14.90;99.90
56725;DHT22;42608;52.776;6.968;2022-09-09T06:12:28;14.90;99.90
56725;DHT22;42608;52.776;6.968;2022-09-09T06:14:53;14.90;99.90
56725;DHT22;42608;52.776;6.968;2022-09-09T06:17:19;14.90;99.90
56725;DHT22;42608;52.776;6.968;2022-09-09T06:19:44;14.90;99.90
56725;DHT22;42608;52.776;6.968;2022-09-09T06:22:13;15.00;99.90
56725;DHT22;42608;52.776;6.968;2022-09-09T06:24:42;15.00;99.90
56725;DHT22;42608;52.776;6.968;2022-09-09T06:27:07;15.00;99.90
56725;DHT22;42608;52.776;6.968;2022-09-09T06:29:33;15.00;99.90
56725;DHT22;42608;52.776;6.968;2022-09-09T06:31:58;15.00;99.90
56725;DHT22;42608;52.776;6.968;2022-09-09T06:34:24;15.00;99.90
56725;DHT22;42608;52.776;6.968;2022-09-09T06:36:49;15.10;99.90
56725;DHT22;42608;52.776;6.968;2022-09-09T06:39:16;15.10;99.90
56725;DHT22;42608;52.776;6.968;2022-09-09T06:41:41;15.10;99.90
56725;DHT22;42608;52.776;6.968;2022-09-09T06:44:07;15.10;99.90
56725;DHT22;42608;52.776;6.968;2022-09-09T06:46:33;15.10;99.90
56725;DHT22;42608;52.776;6.968;2022-09-09T06:49:00;15.10;99.90
56725;DHT22;42608;52.776;6.968;2022-09-09T06:51:28;15.10;99.90
56725;DHT22;42608;52.776;6.968;2022-09-09T06:53:54;15.10;99.90
56725;DHT22;42608;52.776;6.968;2022-09-09T06:56:30;15.20;99.90
56725;DHT22;42608;52.776;6.968;2022-09-09T06:58:57;15.20;99.90
56725;DHT22;42608;52.776;6.968;2022-09-09T07:01:25;15.20;99.90
56725;DHT22;42608;52.776;6.968;2022-09-09T07:03:53;15.20;99.90
56725;DHT22;42608;52.776;6.968;2022-09-09T07:08:52;15.20;99.90
56725;DHT22;42608;52.776;6.968;2022-09-09T07:11:19;15.20;99.90
56725;DHT22;42608;52.776;6.968;2022-09-09T07:13:44;15.20;99.90
56725;DHT22;42608;52.776;6.968;2022-09-09T07:16:11;15.30;99.90
56725;DHT22;42608;52.776;6.968;2022-09-09T07:18:38;15.20;99.90
56725;DHT22;42608;52.776;6.968;2022-09-09T07:21:04;15.30;99.90
56725;DHT22;42608;52.776;6.968;2022-09-09T07:23:30;15.30;99.90
56725;DHT22;42608;52.776;6.968;2022-09-09T07:25:56;15.40;99.90
56725;DHT22;42608;52.776;6.968;2022-09-09T07:28:25;15.40;99.90
56725;DHT22;42608;52.776;6.968;2022-09-09T07:30:57;15.50;99.90
56725;DHT22;42608;52.776;6.968;2022-09-09T07:33:23;15.50;99.90
56725;DHT22;42608;52.776;6.968;2022-09-09T07:35:49;15.50;99.90
56725;DHT22;42608;52.776;6.968;2022-09-09T07:38:15;15.50;99.90
56725;DHT22;42608;52.776;6.968;2022-09-09T07:40:40;15.60;99.90
56725;DHT22;42608;52.776;6.968;2022-09-09T07:43:06;15.70;99.90
56725;DHT22;42608;52.776;6.968;2022-09-09T07:45:33;15.70;99.90
56725;DHT22;42608;52.776;6.968;2022-09-09T07:47:59;15.70;99.90
56725;DHT22;42608;52.776;6.968;2022-09-09T07:50:27;15.80;99.90
56725;DHT22;42608;52.776;6.968;2022-09-09T07:52:53;15.80;99.90
56725;DHT22;42608;52.776;6.968;2022-09-09T07:55:19;15.90;99.90
56725;DHT22;42608;52.776;6.968;2022-09-09T07:57:51;15.90;99.90
56725;DHT22;42608;52.776;6.968;2022-09-09T08:00:17;16.00;99.90
56725;DHT22;42608;52.776;6.968;2022-09-09T08:02:44;16.00;99.90
56725;DHT22;42608;52.776;6.968;2022-09-09T08:05:09;16.10;99.90
56725;DHT22;42608;52.776;6.968;2022-09-09T08:07:35;16.10;99.90
56725;DHT22;42608;52.776;6.968;2022-09-09T08:10:01;16.20;99.90
56725;DHT22;42608;52.776;6.968;2022-09-09T08:12:27;16.20;99.90
56725;DHT22;42608;52.776;6.968;2022-09-09T08:14:52;16.30;99.90
56725;DHT22;42608;52.776;6.968;2022-09-09T08:17:19;16.30;99.90
56725;DHT22;42608;52.776;6.968;2022-09-09T08:19:57;16.30;99.90
56725;DHT22;42608;52.776;6.968;2022-09-09T08:22:30;16.40;99.90
56725;DHT22;42608;52.776;6.968;2022-09-09T08:24:56;16.50;99.90
56725;DHT22;42608;52.776;6.968;2022-09-09T08:27:21;16.50;99.90
56725;DHT22;42608;52.776;6.968;2022-09-09T08:29:48;16.50;99.90
56725;DHT22;42608;52.776;6.968;2022-09-09T08:32:13;16.60;99.90
56725;DHT22;42608;52.776;6.968;2022-09-09T08:34:39;16.60;99.90
56725;DHT22;42608;52.776;6.968;2022-09-09T08:37:06;16.60;99.90
56725;DHT22;42608;52.776;6.968;2022-09-09T08:39:31;16.70;99.90
56725;DHT22;42608;52.776;6.968;2022-09-09T08:50:13;16.80;99.90
56725;DHT22;42608;52.776;6.968;2022-09-09T08:55:20;16.90;99.90
56725;DHT22;42608;52.776;6.968;2022-09-09T08:57:51;16.90;99.90
56725;DHT22;42608;52.776;6.968;2022-09-09T09:00:18;16.90;99.90
56725;DHT22;42608;52.776;6.968;2022-09-09T09:07:52;17.10;99.90
56725;DHT22;42608;52.776;6.968;2022-09-09T09:12:53;17.30;99.90
56725;DHT22;42608;52.776;6.968;2022-09-09T09:15:21;17.30;99.90
56725;DHT22;42608;52.776;6.968;2022-09-09T09:17:49;17.40;99.90
56725;DHT22;42608;52.776;6.968;2022-09-09T09:20:16;17.40;99.90
56725;DHT22;42608;52.776;6.968;2022-09-09T09:22:48;17.40;99.90
56725;DHT22;42608;52.776;6.968;2022-09-09T09:25:21;17.50;99.90
56725;DHT22;42608;52.776;6.968;2022-09-09T09:30:35;17.50;99.90
56725;DHT22;42608;52.776;6.968;2022-09-09T09:33:05;17.60;99.90
56725;DHT22;42608;52.776;6.968;2022-09-09T09:35:33;17.60;99.90
56725;DHT22;42608;52.776;6.968;2022-09-09T09:37:59;17.70;99.90
56725;DHT22;42608;52.776;6.968;2022-09-09T09:40:26;17.70;99.90
56725;DHT22;42608;52.776;6.968;2022-09-09T09:43:04;17.70;99.90
56725;DHT22;42608;52.776;6.968;2022-09-09T09:45:43;17.80;99.90
56725;DHT22;42608;52.776;6.968;2022-09-09T09:48:12;17.80;99.90
56725;DHT22;42608;52.776;6.968;2022-09-09T09:50:46;17.80;99.90
56725;DHT22;42608;52.776;6.968;2022-09-09T09:53:18;17.90;99.90
56725;DHT22;42608;52.776;6.968;2022-09-09T09:55:56;17.90;99.90
56725;DHT22;42608;52.776;6.968;2022-09-09T09:58:22;17.90;99.90
56725;DHT22;42608;52.776;6.968;2022-09-09T10:00:49;17.90;99.90
56725;DHT22;42608;52.776;6.968;2022-09-09T10:03:20;17.90;99.90
56725;DHT22;42608;52.776;6.968;2022-09-09T10:05:46;18.00;99.90
56725;DHT22;42608;52.776;6.968;2022-09-09T10:08:13;18.00;99.90
56725;DHT22;42608;52.776;6.968;2022-09-09T10:13:29;18.10;99.90
56725;DHT22;42608;52.776;6.968;2022-09-09T10:16:02;18.10;99.90
56725;DHT22;42608;52.776;6.968;2022-09-09T10:31:36;18.50;99.90
56725;DHT22;42608;52.776;6.968;2022-09-09T10:34:19;18.50;99.90
56725;DHT22;42608;52.776;6.968;2022-09-09T10:36:50;18.60;99.90
56725;DHT22;42608;52.776;6.968;2022-09-09T10:42:04;18.70;99.90
56725;DHT22;42608;52.776;6.968;2022-09-09T10:55:10;19.00;99.90
56725;DHT22;42608;52.776;6.968;2022-09-09T10:57:48;19.20;99.90
56725;DHT22;42608;52.776;6.968;2022-09-09T11:02:51;19.30;99.90
56725;DHT22;42608;52.776;6.968;2022-09-09T11:05:29;19.40;99.90
56725;DHT22;42608;52.776;6.968;2022-09-09T11:12:48;19.50;99.90
56725;DHT22;42608;52.776;6.968;2022-09-09T11:15:17;19.60;99.90
56725;DHT22;42608;52.776;6.968;2022-09-09T11:17:45;19.60;99.90
56725;DHT22;42608;52.776;6.968;2022-09-09T11:20:12;19.70;99.90
56725;DHT22;42608;52.776;6.968;2022-09-09T11:22:48;19.70;99.90
56725;DHT22;42608;52.776;6.968;2022-09-09T11:25:23;19.80;99.90
56725;DHT22;42608;52.776;6.968;2022-09-09T11:30:30;19.90;99.90
56725;DHT22;42608;52.776;6.968;2022-09-09T11:35:53;20.00;99.90
56725;DHT22;42608;52.776;6.968;2022-09-09T11:40:55;20.00;99.90
56725;DHT22;42608;52.776;6.968;2022-09-09T11:43:31;20.00;99.90
56725;DHT22;42608;52.776;6.968;2022-09-09T11:45:58;20.00;99.90
56725;DHT22;42608;52.776;6.968;2022-09-09T11:48:27;20.00;99.90
56725;DHT22;42608;52.776;6.968;2022-09-09T11:51:01;19.90;99.90
56725;DHT22;42608;52.776;6.968;2022-09-09T11:53:28;19.90;99.90
56725;DHT22;42608;52.776;6.968;2022-09-09T11:56:00;19.90;99.90
56725;DHT22;42608;52.776;6.968;2022-09-09T11:58:29;19.90;99.90
56725;DHT22;42608;52.776;6.968;2022-09-09T12:00:57;19.90;99.90
56725;DHT22;42608;52.776;6.968;2022-09-09T12:06:30;20.00;99.90
56725;DHT22;42608;52.776;6.968;2022-09-09T12:09:08;20.10;99.90
56725;DHT22;42608;52.776;6.968;2022-09-09T12:11:40;20.10;99.90
56725;DHT22;42608;52.776;6.968;2022-09-09T12:14:18;20.10;99.90
56725;DHT22;42608;52.776;6.968;2022-09-09T12:16:44;20.10;99.90
56725;DHT22;42608;52.776;6.968;2022-09-09T12:19:18;20.10;99.90
56725;DHT22;42608;52.776;6.968;2022-09-09T12:21:45;20.20;99.90
56725;DHT22;42608;52.776;6.968;2022-09-09T12:24:16;20.30;99.90
56725;DHT22;42608;52.776;6.968;2022-09-09T12:26:53;20.40;99.90
56725;DHT22;42608;52.776;6.968;2022-09-09T12:31:51;20.50;99.90
56725;DHT22;42608;52.776;6.968;2022-09-09T12:34:36;20.50;99.90
56725;DHT22;42608;52.776;6.968;2022-09-09T12:37:05;20.50;99.90
56725;DHT22;42608;52.776;6.968;2022-09-09T12:39:33;20.40;99.90
56725;DHT22;42608;52.776;6.968;2022-09-09T12:42:00;20.40;99.90
56725;DHT22;42608;52.776;6.968;2022-09-09T12:44:29;20.40;99.90
56725;DHT22;42608;52.776;6.968;2022-09-09T12:46:56;20.40;99.90
56725;DHT22;42608;52.776;6.968;2022-09-09T12:51:50;20.20;99.90
56725;DHT22;42608;52.776;6.968;2022-09-09T12:54:21;20.10;99.90
56725;DHT22;42608;52.776;6.968;2022-09-09T12:56:47;19.90;99.90
56725;DHT22;42608;52.776;6.968;2022-09-09T12:59:27;19.80;99.90
56725;DHT22;42608;52.776;6.968;2022-09-09T13:02:00;19.90;99.90
56725;DHT22;42608;52.776;6.968;2022-09-09T13:04:26;19.90;99.90
56725;DHT22;42608;52.776;6.968;2022-09-09T13:06:51;20.00;99.90
56725;DHT22;42608;52.776;6.968;2022-09-09T13:09:18;20.00;99.90
56725;DHT22;42608;52.776;6.968;2022-09-09T13:11:47;20.00;99.90
56725;DHT22;42608;52.776;6.968;2022-09-09T13:14:28;20.00;99.90
56725;DHT22;42608;52.776;6.968;2022-09-09T13:16:58;19.90;99.90
56725;DHT22;42608;52.776;6.968;2022-09-09T13:19:24;19.90;99.90
56725;DHT22;42608;52.776;6.968;2022-09-09T13:21:53;19.80;99.90
56725;DHT22;42608;52.776;6.968;2022-09-09T13:24:57;19.70;99.90
56725;DHT22;42608;52.776;6.968;2022-09-09T13:27:23;19.70;99.90
56725;DHT22;42608;52.776;6.968;2022-09-09T13:29:53;19.60;99.90
56725;DHT22;42608;52.776;6.968;2022-09-09T13:32:22;19.60;99.90
56725;DHT22;42608;52.776;6.968;2022-09-09T13:34:55;19.50;99.90
56725;DHT22;42608;52.776;6.968;2022-09-09T13:37:42;19.50;99.90
56725;DHT22;42608;52.776;6.968;2022-09-09T13:40:14;19.50;99.90
56725;DHT22;42608;52.776;6.968;2022-09-09T13:42:42;19.50;99.90
56725;DHT22;42608;52.776;6.968;2022-09-09T13:45:21;19.60;99.90
56725;DHT22;42608;52.776;6.968;2022-09-09T13:47:48;19.60;99.90
56725;DHT22;42608;52.776;6.968;2022-09-09T13:50:30;19.70;99.90
56725;DHT22;42608;52.776;6.968;2022-09-09T13:52:56;19.80;99.90
56725;DHT22;42608;52.776;6.968;2022-09-09T13:55:28;19.90;99.90
56725;DHT22;42608;52.776;6.968;2022-09-09T14:00:23;20.00;99.90
56725;DHT22;42608;52.776;6.968;2022-09-09T14:02:49;20.00;99.90
56725;DHT22;42608;52.776;6.968;2022-09-09T14:05:16;20.00;99.90
56725;DHT22;42608;52.776;6.968;2022-09-09T14:07:42;20.00;99.90
56725;DHT22;42608;52.776;6.968;2022-09-09T14:10:08;20.00;99.90
56725;DHT22;42608;52.776;6.968;2022-09-09T14:12:34;20.00;99.90
56725;DHT22;42608;52.776;6.968;2022-09-09T14:15:02;19.90;99.90
56725;DHT22;42608;52.776;6.968;2022-09-09T14:17:28;19.90;99.90
56725;DHT22;42608;52.776;6.968;2022-09-09T14:19:58;19.80;99.90
56725;DHT22;42608;52.776;6.968;2022-09-09T14:22:24;19.70;99.90
56725;DHT22;42608;52.776;6.968;2022-09-09T14:24:50;19.50;99.90
56725;DHT22;42608;52.776;6.968;2022-09-09T14:27:17;19.40;99.90
56725;DHT22;42608;52.776;6.968;2022-09-09T14:29:44;19.20;99.90
56725;DHT22;42608;52.776;6.968;2022-09-09T14:32:10;19.00;99.90
56725;DHT22;42608;52.776;6.968;2022-09-09T14:34:36;19.00;99.90
56725;DHT22;42608;52.776;6.968;2022-09-09T14:37:01;18.90;99.90
56725;DHT22;42608;52.776;6.968;2022-09-09T14:39:27;18.90;99.90
56725;DHT22;42608;52.776;6.968;2022-09-09T14:41:52;19.00;99.90
56725;DHT22;42608;52.776;6.968;2022-09-09T14:44:18;18.90;99.90
56725;DHT22;42608;52.776;6.968;2022-09-09T14:46:44;18.90;99.90
56725;DHT22;42608;52.776;6.968;2022-09-09T14:49:09;18.90;99.90
56725;DHT22;42608;52.776;6.968;2022-09-09T14:51:38;19.00;99.90
56725;DHT22;42608;52.776;6.968;2022-09-09T14:54:04;19.00;99.90
56725;DHT22;42608;52.776;6.968;2022-09-09T14:56:36;19.10;99.90
56725;DHT22;42608;52.776;6.968;2022-09-09T14:59:07;19.20;99.90
56725;DHT22;42608;52.776;6.968;2022-09-09T15:01:35;19.30;99.90
56725;DHT22;42608;52.776;6.968;2022-09-09T15:04:03;19.30;99.90
56725;DHT22;42608;52.776;6.968;2022-09-09T15:06:29;19.30;99.90
56725;DHT22;42608;52.776;6.968;2022-09-09T15:08:55;19.20;99.90
56725;DHT22;42608;52.776;6.968;2022-09-09T15:11:28;19.20;99.90
56725;DHT22;42608;52.776;6.968;2022-09-09T15:13:55;19.30;99.90
56725;DHT22;42608;52.776;6.968;2022-09-09T15:16:23;19.30;99.90
56725;DHT22;42608;52.776;6.968;2022-09-09T15:18:50;19.40;99.90
56725;DHT22;42608;52.776;6.968;2022-09-09T15:21:21;19.40;99.90
56725;DHT22;42608;52.776;6.968;2022-09-09T15:23:47;19.50;99.90
56725;DHT22;42608;52.776;6.968;2022-09-09T15:26:14;19.50;99.90
56725;DHT22;42608;52.776;6.968;2022-09-09T15:28:40;19.60;99.90
56725;DHT22;42608;52.776;6.968;2022-09-09T15:31:09;19.60;99.90
56725;DHT22;42608;52.776;6.968;2022-09-09T15:33:35;19.50;99.90
56725;DHT22;42608;52.776;6.968;2022-09-09T15:39:00;19.40;99.90
56725;DHT22;42608;52.776;6.968;2022-09-09T15:41:26;19.40;99.90
56725;DHT22;42608;52.776;6.968;2022-09-09T15:43:53;19.40;99.90
56725;DHT22;42608;52.776;6.968;2022-09-09T15:48:51;19.30;99.90
56725;DHT22;42608;52.776;6.968;2022-09-09T15:51:17;19.30;99.90
56725;DHT22;42608;52.776;6.968;2022-09-09T15:53:44;19.30;99.90
56725;DHT22;42608;52.776;6.968;2022-09-09T15:56:10;19.30;99.90
56725;DHT22;42608;52.776;6.968;2022-09-09T15:58:35;19.30;99.90
56725;DHT22;42608;52.776;6.968;2022-09-09T16:01:05;19.30;99.90
56725;DHT22;42608;52.776;6.968;2022-09-09T16:03:44;19.30;99.90
56725;DHT22;42608;52.776;6.968;2022-09-09T16:06:18;19.30;99.90
56725;DHT22;42608;52.776;6.968;2022-09-09T16:08:48;19.30;99.90
56725;DHT22;42608;52.776;6.968;2022-09-09T16:11:21;19.30;99.90
56725;DHT22;42608;52.776;6.968;2022-09-09T16:13:47;19.20;99.90
56725;DHT22;42608;52.776;6.968;2022-09-09T16:16:14;19.20;99.90
56725;DHT22;42608;52.776;6.968;2022-09-09T16:18:45;19.20;99.90
56725;DHT22;42608;52.776;6.968;2022-09-09T16:21:13;19.20;99.90
56725;DHT22;42608;52.776;6.968;2022-09-09T16:23:39;19.10;99.90
56725;DHT22;42608;52.776;6.968;2022-09-09T16:26:05;19.10;99.90
56725;DHT22;42608;52.776;6.968;2022-09-09T16:28:30;19.10;99.90
56725;DHT22;42608;52.776;6.968;2022-09-09T16:30:56;19.10;99.90
56725;DHT22;42608;52.776;6.968;2022-09-09T16:33:26;19.10;99.90
56725;DHT22;42608;52.776;6.968;2022-09-09T16:35:51;19.10;99.90
56725;DHT22;42608;52.776;6.968;2022-09-09T16:38:17;19.10;99.90
56725;DHT22;42608;52.776;6.968;2022-09-09T16:40:45;19.10;99.90
56725;DHT22;42608;52.776;6.968;2022-09-09T16:43:11;19.10;99.90
56725;DHT22;42608;52.776;6.968;2022-09-09T16:45:44;19.10;99.90
56725;DHT22;42608;52.776;6.968;2022-09-09T16:48:10;19.10;99.90
56725;DHT22;42608;52.776;6.968;2022-09-09T16:50:36;19.10;99.90
56725;DHT22;42608;52.776;6.968;2022-09-09T16:53:02;19.00;99.90
56725;DHT22;42608;52.776;6.968;2022-09-09T16:55:40;19.00;99.90
56725;DHT22;42608;52.776;6.968;2022-09-09T16:58:06;19.00;99.90
56725;DHT22;42608;52.776;6.968;2022-09-09T17:00:34;19.00;99.90
56725;DHT22;42608;52.776;6.968;2022-09-09T17:02:59;19.00;99.90
56725;DHT22;42608;52.776;6.968;2022-09-09T17:05:25;19.00;99.90
56725;DHT22;42608;52.776;6.968;2022-09-09T17:07:51;19.00;99.90
56725;DHT22;42608;52.776;6.968;2022-09-09T17:10:17;18.90;99.90
56725;DHT22;42608;52.776;6.968;2022-09-09T17:12:42;18.90;99.90
56725;DHT22;42608;52.776;6.968;2022-09-09T17:15:08;18.90;99.90
56725;DHT22;42608;52.776;6.968;2022-09-09T17:17:41;18.90;99.90
56725;DHT22;42608;52.776;6.968;2022-09-09T17:20:10;18.90;99.90
56725;DHT22;42608;52.776;6.968;2022-09-09T17:22:36;18.90;99.90
56725;DHT22;42608;52.776;6.968;2022-09-09T17:25:02;18.90;99.90
56725;DHT22;42608;52.776;6.968;2022-09-09T17:27:28;18.90;99.90